Time;durP1;ratioP1;P1;durP2;ratioP2;P2;SDS_P1;SDS_P2;PMS_P1;PMS_P2;Temp;Humidity;BMP_temperature;BMP_pressure;BME280_temperature;BME280_humidity;BME280_pressure;Samples;Min_cycle;Max_cycle;Signal;HPM_P1;HPM_P2
2022/10/13 00:00:02;;;;;;;5.75;0.90;;;22.90;99.90;;;;;;5076635;28;20202;-79
2022/10/13 00:02:33;;;;;;;7.25;1.25;;;22.80;99.90;;;;;;5076490;28;20187;-80
2022/10/13 00:05:05;;;;;;;3.28;0.80;;;23.00;99.90;;;;;;5093598;28;20191;-80
2022/10/13 00:07:38;;;;;;;3.38;0.63;;;22.90;99.90;;;;;;5086425;28;20239;-81
2022/10/13 00:10:10;;;;;;;3.25;0.70;;;22.80;99.90;;;;;;5106338;28;20219;-81
2022/10/13 00:12:45;;;;;;;2.67;0.80;;;22.70;99.90;;;;;;5106896;28;20235;-81
2022/10/13 00:15:17;;;;;;;5.20;0.80;;;22.50;99.90;;;;;;5108636;28;20233;-81
2022/10/13 00:17:51;;;;;;;2.28;0.70;;;22.40;99.90;;;;;;5108848;28;20246;-82
2022/10/13 00:20:22;;;;;;;3.47;0.80;;;22.30;99.90;;;;;;5105600;28;20273;-81
2022/10/13 00:22:56;;;;;;;6.22;0.90;;;22.30;99.90;;;;;;5085923;28;20268;-81
2022/10/13 00:25:28;;;;;;;3.33;0.70;;;22.10;99.90;;;;;;5084205;28;20660;-80
2022/10/13 00:27:59;;;;;;;4.88;0.90;;;22.00;99.90;;;;;;5086178;28;20196;-81
2022/10/13 00:30:38;;;;;;;3.45;0.70;;;22.00;99.90;;;;;;5086014;28;20208;-81
2022/10/13 00:33:09;;;;;;;3.55;0.82;;;22.00;99.90;;;;;;5095572;28;20187;-81
2022/10/13 00:35:45;;;;;;;5.25;0.88;;;22.00;99.90;;;;;;5105314;28;20215;-80
2022/10/13 00:38:22;;;;;;;4.25;0.90;;;21.80;99.90;;;;;;5105534;28;20642;-81
2022/10/13 00:40:54;;;;;;;3.38;0.80;;;21.80;99.90;;;;;;5091978;28;20291;-81
2022/10/13 00:43:27;;;;;;;7.80;0.93;;;21.70;99.90;;;;;;5084072;28;20195;-81
2022/10/13 00:46:01;;;;;;;4.97;0.60;;;21.70;99.90;;;;;;5086384;28;20219;-82
2022/10/13 00:48:34;;;;;;;4.47;0.70;;;21.70;99.90;;;;;;5086550;28;20203;-82
2022/10/13 00:51:06;;;;;;;2.20;0.80;;;21.60;99.90;;;;;;5101695;28;20203;-81
2022/10/13 00:53:40;;;;;;;2.72;0.80;;;21.60;99.90;;;;;;5105083;28;20219;-81
2022/10/13 00:56:13;;;;;;;5.15;0.80;;;21.60;99.90;;;;;;5097436;28;20241;-81
2022/10/13 00:58:45;;;;;;;3.70;0.82;;;21.60;99.90;;;;;;5071122;28;20291;-81
2022/10/13 01:01:17;;;;;;;5.05;0.90;;;21.40;99.90;;;;;;5072581;28;20196;-81
2022/10/13 01:03:48;;;;;;;4.28;0.80;;;21.50;99.90;;;;;;5078577;28;20206;-81
2022/10/13 01:06:20;;;;;;;4.55;0.73;;;21.50;99.90;;;;;;5090095;28;20202;-81
2022/10/13 01:09:00;;;;;;;3.22;0.60;;;21.50;99.90;;;;;;5101382;28;20294;-83
2022/10/13 01:11:49;;;;;;;5.13;0.65;;;21.60;99.90;;;;;;5095973;28;20196;-82
2022/10/13 01:14:26;;;;;;;3.55;0.88;;;21.60;99.90;;;;;;5079109;28;20231;-81
2022/10/13 01:17:15;;;;;;;3.65;0.50;;;21.70;99.90;;;;;;5090793;28;20231;-80
2022/10/13 01:20:23;;;;;;;3.88;0.73;;;21.70;99.90;;;;;;5089467;28;20645;-80
2022/10/13 01:23:08;;;;;;;4.10;0.80;;;21.80;99.90;;;;;;5096294;28;20662;-81
2022/10/13 01:25:59;;;;;;;4.00;0.60;;;21.70;99.90;;;;;;5090629;28;20646;-81
2022/10/13 01:28:44;;;;;;;2.83;0.90;;;21.60;99.90;;;;;;5085516;28;20283;-81
2022/10/13 01:31:21;;;;;;;3.13;0.70;;;21.60;99.90;;;;;;5077993;28;20294;-81
2022/10/13 01:33:58;;;;;;;4.22;0.80;;;21.60;99.90;;;;;;5089656;28;20199;-81
2022/10/13 01:36:35;;;;;;;3.25;0.80;;;21.50;99.90;;;;;;5089682;28;20231;-81
2022/10/13 01:39:11;;;;;;;5.93;0.82;;;21.40;99.90;;;;;;5096043;28;20205;-80
2022/10/13 01:41:48;;;;;;;3.50;0.70;;;21.30;99.90;;;;;;5098381;28;20205;-81
2022/10/13 01:44:23;;;;;;;3.45;1.00;;;21.20;99.90;;;;;;5096059;28;20282;-82
2022/10/13 01:46:58;;;;;;;4.00;1.02;;;21.10;99.90;;;;;;5080310;28;20278;-82
2022/10/13 01:49:33;;;;;;;5.13;1.10;;;21.00;99.90;;;;;;5098140;28;20925;-81
2022/10/13 01:52:06;;;;;;;2.78;0.82;;;21.10;99.90;;;;;;5079193;28;20226;-83
2022/10/13 01:54:37;;;;;;;3.40;0.52;;;20.90;99.90;;;;;;5083373;28;20197;-82
2022/10/13 01:57:31;;;;;;;4.28;1.25;;;20.90;99.90;;;;;;5097647;28;20227;-84
2022/10/13 02:00:04;;;;;;;5.30;0.90;;;21.00;99.90;;;;;;5097320;28;20195;-81
2022/10/13 02:02:45;;;;;;;4.90;0.82;;;21.10;99.90;;;;;;5086240;28;20196;-82
2022/10/13 02:05:23;;;;;;;3.85;0.80;;;21.10;99.90;;;;;;5084002;28;20207;-81
2022/10/13 02:08:00;;;;;;;4.60;0.90;;;21.10;99.90;;;;;;5094493;28;20209;-80
2022/10/13 02:10:36;;;;;;;3.83;0.70;;;21.10;99.90;;;;;;5094734;28;20207;-81
2022/10/13 02:13:10;;;;;;;6.10;1.00;;;21.10;99.90;;;;;;5094510;28;20201;-81
2022/10/13 02:15:44;;;;;;;4.63;0.80;;;21.20;99.90;;;;;;5094036;28;20230;-80
2022/10/13 02:18:20;;;;;;;3.55;0.80;;;21.20;99.90;;;;;;5094253;28;20202;-81
2022/10/13 02:20:52;;;;;;;5.80;1.00;;;21.30;99.90;;;;;;5091109;28;20198;-81
2022/10/13 02:23:23;;;;;;;3.22;0.98;;;21.40;99.90;;;;;;5078618;28;20672;-81
2022/10/13 02:25:54;;;;;;;2.67;0.70;;;21.40;99.90;;;;;;5089468;28;20255;-80
2022/10/13 02:28:28;;;;;;;5.07;0.90;;;21.40;99.90;;;;;;5075572;28;20207;-81
2022/10/13 02:31:00;;;;;;;3.17;1.00;;;21.40;99.90;;;;;;5073991;28;20201;-79
2022/10/13 02:33:33;;;;;;;3.75;0.93;;;21.40;99.90;;;;;;5087063;28;20231;-80
2022/10/13 02:36:04;;;;;;;4.20;0.90;;;21.50;99.90;;;;;;5091108;28;20560;-81
2022/10/13 02:38:35;;;;;;;6.25;1.00;;;21.60;99.90;;;;;;5091276;28;20194;-80
2022/10/13 02:41:05;;;;;;;4.65;0.80;;;21.60;99.90;;;;;;5093219;28;20191;-79
2022/10/13 02:43:37;;;;;;;3.67;0.98;;;21.60;99.90;;;;;;5094003;28;20209;-80
2022/10/13 02:46:08;;;;;;;5.38;1.15;;;21.70;99.90;;;;;;5093871;28;20665;-81
2022/10/13 02:48:41;;;;;;;3.70;0.90;;;21.70;99.90;;;;;;5093578;28;20203;-80
2022/10/13 02:51:11;;;;;;;3.97;0.90;;;21.70;99.90;;;;;;5092274;28;20203;-81
2022/10/13 02:53:43;;;;;;;6.32;1.02;;;21.70;99.90;;;;;;5096704;28;20286;-81
2022/10/13 02:56:13;;;;;;;7.57;1.20;;;21.60;99.90;;;;;;5086999;28;20280;-81
2022/10/13 02:58:44;;;;;;;3.83;1.00;;;21.60;99.90;;;;;;5074346;28;20200;-80
2022/10/13 03:01:17;;;;;;;6.15;1.20;;;21.60;99.90;;;;;;5075489;28;20434;-81
2022/10/13 03:03:50;;;;;;;5.60;1.13;;;21.50;99.90;;;;;;5093737;28;20195;-82
2022/10/13 03:06:21;;;;;;;7.38;1.10;;;21.40;99.90;;;;;;5094028;28;20195;-80
2022/10/13 03:08:52;;;;;;;3.90;0.80;;;21.40;99.90;;;;;;5094051;28;20720;-79
2022/10/13 03:11:23;;;;;;;2.45;0.90;;;21.40;99.90;;;;;;5094440;28;20205;-80
2022/10/13 03:13:54;;;;;;;4.28;1.10;;;21.40;99.90;;;;;;5081221;28;20569;-80
2022/10/13 03:16:24;;;;;;;2.20;0.80;;;21.50;99.90;;;;;;5086870;28;20223;-80
2022/10/13 03:18:57;;;;;;;4.78;0.85;;;21.50;99.90;;;;;;5091086;28;20200;-80
2022/10/13 03:21:28;;;;;;;6.93;0.90;;;21.60;99.90;;;;;;5095965;28;20199;-82
2022/10/13 03:23:59;;;;;;;3.38;0.90;;;21.40;99.90;;;;;;5097528;28;20205;-80
2022/10/13 03:26:30;;;;;;;6.68;0.88;;;21.50;99.90;;;;;;5100374;28;20691;-81
2022/10/13 03:29:01;;;;;;;3.65;1.08;;;21.60;99.90;;;;;;5099043;28;20201;-81
2022/10/13 03:31:32;;;;;;;6.32;1.23;;;21.70;99.90;;;;;;5103941;28;20646;-81
2022/10/13 03:34:04;;;;;;;12.77;1.60;;;21.70;99.90;;;;;;5093385;28;20200;-80
2022/10/13 03:36:35;;;;;;;6.07;1.10;;;21.70;99.90;;;;;;5092136;28;20215;-80
2022/10/13 03:39:06;;;;;;;6.03;1.25;;;21.70;99.90;;;;;;5091924;28;20203;-80
2022/10/13 03:41:37;;;;;;;7.40;1.00;;;21.80;99.90;;;;;;5092838;28;20195;-80
2022/10/13 03:44:08;;;;;;;3.40;0.80;;;21.80;99.90;;;;;;5092178;28;20569;-81
2022/10/13 03:46:38;;;;;;;2.83;0.70;;;21.80;99.90;;;;;;5083840;28;20650;-81
2022/10/13 03:49:12;;;;;;;6.82;1.15;;;22.30;99.90;;;;;;5093209;28;20576;-81
2022/10/13 03:51:43;;;;;;;5.82;0.90;;;22.80;99.90;;;;;;5086467;28;20279;-81
2022/10/13 03:54:14;;;;;;;5.10;1.08;;;23.20;99.90;;;;;;5090787;28;20286;-80
2022/10/13 03:56:45;;;;;;;5.50;0.90;;;23.60;99.90;;;;;;5076317;28;20629;-81
2022/10/13 03:59:17;;;;;;;7.10;1.10;;;23.70;99.90;;;;;;5074612;28;20203;-81
2022/10/13 04:01:48;;;;;;;8.45;1.13;;;23.80;99.90;;;;;;5073622;28;20251;-80
2022/10/13 04:04:21;;;;;;;4.68;1.17;;;23.80;99.90;;;;;;5091420;28;20202;-80
2022/10/13 04:06:51;;;;;;;4.20;1.00;;;24.00;99.90;;;;;;5100093;28;20191;-81
2022/10/13 04:09:22;;;;;;;4.97;1.10;;;24.10;99.90;;;;;;5085459;28;20276;-81
2022/10/13 04:11:57;;;;;;;2.85;0.80;;;23.90;99.90;;;;;;5085345;28;20262;-81
2022/10/13 04:14:29;;;;;;;4.75;1.02;;;23.80;99.90;;;;;;5086240;28;20251;-81
2022/10/13 04:17:00;;;;;;;4.25;1.13;;;23.60;99.90;;;;;;5086772;28;20231;-81
2022/10/13 04:19:33;;;;;;;7.20;1.33;;;23.60;99.90;;;;;;5086581;28;20191;-80
2022/10/13 04:22:04;;;;;;;3.45;0.80;;;23.70;99.90;;;;;;5095089;28;20192;-81
2022/10/13 04:24:37;;;;;;;4.90;1.02;;;24.00;99.90;;;;;;5102232;28;20199;-81
2022/10/13 04:27:08;;;;;;;7.63;1.20;;;24.20;99.90;;;;;;5106110;28;20238;-81
2022/10/13 04:29:39;;;;;;;6.47;1.30;;;24.00;99.90;;;;;;5104762;28;20237;-81
2022/10/13 04:32:09;;;;;;;5.03;0.93;;;23.80;99.90;;;;;;5105740;28;20204;-81
2022/10/13 04:34:42;;;;;;;5.22;1.00;;;23.50;99.90;;;;;;5106457;28;20195;-80
2022/10/13 04:37:13;;;;;;;3.50;1.05;;;23.50;99.90;;;;;;5098268;28;20245;-81
2022/10/13 04:39:45;;;;;;;5.28;0.88;;;23.50;99.90;;;;;;5086280;28;20210;-80
2022/10/13 04:42:17;;;;;;;2.42;0.85;;;23.50;99.90;;;;;;5084541;28;20195;-81
2022/10/13 04:44:48;;;;;;;4.35;1.05;;;23.50;99.90;;;;;;5083212;28;20184;-81
2022/10/13 04:47:18;;;;;;;2.92;0.75;;;23.40;99.90;;;;;;5085447;28;20203;-81
2022/10/13 04:49:51;;;;;;;4.05;0.95;;;23.40;99.90;;;;;;5072535;28;20218;-81
2022/10/13 04:52:22;;;;;;;6.22;1.10;;;23.30;99.90;;;;;;5087870;28;20199;-81
2022/10/13 04:54:53;;;;;;;3.78;1.05;;;23.30;99.90;;;;;;5088097;28;20199;-81
2022/10/13 04:57:24;;;;;;;6.70;1.30;;;23.30;99.90;;;;;;5091216;28;20689;-82
2022/10/13 04:59:55;;;;;;;3.83;1.10;;;23.30;99.90;;;;;;5093963;28;20238;-81
2022/10/13 05:02:26;;;;;;;7.30;1.60;;;23.10;99.90;;;;;;5078375;28;20206;-81
2022/10/13 05:04:59;;;;;;;5.93;1.05;;;23.10;99.90;;;;;;5073104;28;20282;-82
2022/10/13 05:07:31;;;;;;;8.98;1.40;;;22.90;99.90;;;;;;5077778;28;20226;-81
2022/10/13 05:10:02;;;;;;;5.78;1.20;;;23.00;99.90;;;;;;5079622;28;20550;-80
2022/10/13 05:12:35;;;;;;;6.85;1.40;;;23.10;99.90;;;;;;5083678;28;20214;-80
2022/10/13 05:15:06;;;;;;;4.32;1.00;;;23.20;99.90;;;;;;5095835;28;20237;-80
2022/10/13 05:17:37;;;;;;;4.78;1.05;;;23.50;99.90;;;;;;5095568;28;20230;-81
2022/10/13 05:20:11;;;;;;;8.10;1.48;;;23.70;99.90;;;;;;5095965;28;20270;-81
2022/10/13 05:22:45;;;;;;;4.32;1.20;;;24.00;99.90;;;;;;5096755;28;20196;-81
2022/10/13 05:25:17;;;;;;;5.68;1.58;;;23.90;99.90;;;;;;5097496;28;20294;-81
2022/10/13 05:27:47;;;;;;;5.75;1.50;;;23.70;99.90;;;;;;5076192;28;20208;-81
2022/10/13 05:30:18;;;;;;;5.22;1.30;;;23.50;99.90;;;;;;5090943;28;20214;-81
2022/10/13 05:32:49;;;;;;;7.40;1.20;;;23.20;99.90;;;;;;5094980;28;20199;-81
2022/10/13 05:35:22;;;;;;;6.97;1.27;;;23.00;99.90;;;;;;5096336;28;20240;-81
2022/10/13 05:37:53;;;;;;;7.22;1.10;;;23.10;99.90;;;;;;5095690;28;20211;-80
2022/10/13 05:40:24;;;;;;;4.80;1.00;;;23.00;99.90;;;;;;5088726;28;20324;-80
2022/10/13 05:42:55;;;;;;;5.28;1.13;;;23.50;99.90;;;;;;5105929;28;20199;-81
2022/10/13 05:45:29;;;;;;;5.00;1.13;;;24.10;99.90;;;;;;5076101;28;20207;-80
2022/10/13 05:48:00;;;;;;;7.35;1.23;;;24.40;99.90;;;;;;5096320;28;20210;-81
2022/10/13 05:50:33;;;;;;;5.20;1.30;;;24.60;99.90;;;;;;5098123;28;20721;-81
2022/10/13 05:53:03;;;;;;;9.60;1.60;;;24.60;99.90;;;;;;5096151;28;20263;-81
2022/10/13 05:55:36;;;;;;;3.55;1.00;;;24.70;99.90;;;;;;5082060;28;20242;-82
2022/10/13 05:58:07;;;;;;;3.97;1.38;;;24.90;99.90;;;;;;5093983;28;20537;-82
2022/10/13 06:00:38;;;;;;;7.25;1.52;;;25.00;99.90;;;;;;5089256;28;20199;-82
2022/10/13 06:03:13;;;;;;;7.50;1.13;;;25.10;99.90;;;;;;5081652;28;20203;-80
2022/10/13 06:05:48;;;;;;;6.10;1.20;;;25.00;99.90;;;;;;5098489;28;20195;-81
2022/10/13 06:08:19;;;;;;;8.35;1.40;;;24.70;99.90;;;;;;5095849;28;20206;-82
2022/10/13 06:10:50;;;;;;;6.53;1.25;;;24.80;99.90;;;;;;5093398;28;20282;-81
2022/10/13 06:13:21;;;;;;;6.82;1.42;;;24.70;99.90;;;;;;5094512;28;20199;-82
2022/10/13 06:15:51;;;;;;;6.20;1.45;;;24.60;99.90;;;;;;5094227;28;20223;-80
2022/10/13 06:18:22;;;;;;;8.55;1.40;;;24.20;99.90;;;;;;5084058;28;20306;-81
2022/10/13 06:20:56;;;;;;;6.75;1.40;;;23.70;99.90;;;;;;5079682;28;20191;-82
2022/10/13 06:23:27;;;;;;;6.13;1.35;;;23.40;99.90;;;;;;5075067;28;20228;-81
2022/10/13 06:25:58;;;;;;;5.18;1.30;;;23.00;99.90;;;;;;5086035;28;20196;-82
2022/10/13 06:28:30;;;;;;;8.60;1.60;;;22.60;99.90;;;;;;5096304;28;20727;-81
2022/10/13 06:31:01;;;;;;;10.02;1.80;;;22.30;99.90;;;;;;5097824;28;20222;-81
2022/10/13 06:33:32;;;;;;;7.97;1.58;;;22.30;99.90;;;;;;5088058;28;20196;-81
2022/10/13 06:36:07;;;;;;;6.13;1.63;;;22.10;99.90;;;;;;5077847;28;20204;-82
2022/10/13 06:38:37;;;;;;;11.00;1.90;;;22.00;99.90;;;;;;5075922;28;20727;-80
2022/10/13 06:41:08;;;;;;;12.02;2.00;;;21.90;99.90;;;;;;5078624;28;20207;-80
2022/10/13 06:43:41;;;;;;;6.63;1.42;;;21.80;99.90;;;;;;5094254;28;20202;-80
2022/10/13 06:46:12;;;;;;;10.07;1.85;;;21.70;99.90;;;;;;5101175;28;20286;-80
2022/10/13 06:48:43;;;;;;;8.20;1.60;;;21.70;99.90;;;;;;5095505;28;20199;-80
2022/10/13 06:51:15;;;;;;;6.53;1.30;;;21.60;99.90;;;;;;5083351;28;20200;-80
2022/10/13 06:53:46;;;;;;;5.03;1.50;;;21.60;99.90;;;;;;5075872;28;20199;-80
2022/10/13 06:56:17;;;;;;;8.38;1.60;;;21.60;99.90;;;;;;5089453;28;20274;-80
2022/10/13 06:58:48;;;;;;;12.25;2.05;;;21.50;99.90;;;;;;5093337;28;20309;-80
2022/10/13 07:01:19;;;;;;;8.13;1.60;;;21.40;99.90;;;;;;5093201;28;20199;-80
2022/10/13 07:03:52;;;;;;;7.05;1.35;;;21.40;99.90;;;;;;5092858;28;20621;-80
2022/10/13 07:06:28;;;;;;;8.38;1.63;;;21.30;99.90;;;;;;5095887;28;20278;-79
2022/10/13 07:08:58;;;;;;;8.60;1.75;;;21.30;99.90;;;;;;5082901;28;20709;-80
2022/10/13 07:11:29;;;;;;;8.77;1.52;;;21.20;99.90;;;;;;5082066;28;20214;-80
2022/10/13 07:14:00;;;;;;;11.55;1.90;;;21.10;99.90;;;;;;5092713;28;20673;-78
2022/10/13 07:16:31;;;;;;;5.60;1.42;;;21.20;99.90;;;;;;5093275;28;20209;-79
2022/10/13 07:19:01;;;;;;;6.32;1.42;;;21.10;99.90;;;;;;5093901;28;20227;-79
2022/10/13 07:21:35;;;;;;;9.93;1.83;;;21.10;99.90;;;;;;5093276;28;20264;-80
2022/10/13 07:24:06;;;;;;;8.68;1.65;;;21.00;99.90;;;;;;5087970;28;20532;-79
2022/10/13 07:26:37;;;;;;;5.72;1.38;;;20.90;99.90;;;;;;5081246;28;20605;-80
2022/10/13 07:29:08;;;;;;;8.00;1.92;;;21.00;99.90;;;;;;5092533;28;20195;-80
2022/10/13 07:31:45;;;;;;;6.80;1.45;;;21.00;99.90;;;;;;5094317;28;20195;-79
2022/10/13 07:34:17;;;;;;;10.30;1.65;;;20.90;99.90;;;;;;5093779;28;20679;-79
2022/10/13 07:36:50;;;;;;;7.38;1.70;;;20.80;99.90;;;;;;5094179;28;20190;-78
2022/10/13 07:39:21;;;;;;;10.70;2.00;;;20.80;99.90;;;;;;5089810;28;20273;-77
2022/10/13 07:41:52;;;;;;;9.20;1.92;;;20.80;99.90;;;;;;5082828;28;20274;-79
2022/10/13 07:44:25;;;;;;;8.40;2.13;;;20.70;99.90;;;;;;5092477;28;20244;-80
2022/10/13 07:46:56;;;;;;;6.85;1.30;;;20.70;99.90;;;;;;5072322;28;20200;-79
2022/10/13 07:49:27;;;;;;;7.78;1.63;;;20.70;99.90;;;;;;5073872;28;20200;-79
2022/10/13 07:51:59;;;;;;;8.60;1.77;;;20.60;99.90;;;;;;5086041;28;20192;-80
2022/10/13 07:54:30;;;;;;;9.02;1.95;;;20.60;99.90;;;;;;5083854;28;20646;-82
2022/10/13 07:57:01;;;;;;;7.03;1.70;;;20.50;99.90;;;;;;5084285;28;20698;-78
2022/10/13 07:59:33;;;;;;;7.50;1.50;;;20.50;99.90;;;;;;5094785;28;20223;-79
2022/10/13 08:02:04;;;;;;;10.48;1.55;;;20.50;99.90;;;;;;5091003;28;20204;-80
2022/10/13 08:04:35;;;;;;;8.23;1.80;;;20.40;99.90;;;;;;5076376;28;20233;-80
2022/10/13 08:07:08;;;;;;;10.90;2.00;;;20.40;99.90;;;;;;5074145;28;20571;-78
2022/10/13 08:09:39;;;;;;;9.93;2.00;;;20.40;99.90;;;;;;5074234;28;20227;-79
2022/10/13 08:12:10;;;;;;;10.40;2.00;;;20.50;99.90;;;;;;5080854;28;20220;-79
2022/10/13 08:14:41;;;;;;;11.23;1.75;;;20.40;99.90;;;;;;5087928;28;20231;-79
2022/10/13 08:17:11;;;;;;;10.68;1.98;;;20.40;99.90;;;;;;5093385;28;20226;-78
2022/10/13 08:19:42;;;;;;;9.77;2.08;;;20.30;99.90;;;;;;5091765;28;20237;-79
2022/10/13 08:22:15;;;;;;;8.23;1.80;;;20.30;99.90;;;;;;5092987;28;20206;-79
2022/10/13 08:24:47;;;;;;;9.23;2.30;;;20.30;99.90;;;;;;5092544;28;20199;-76
2022/10/13 08:27:29;;;;;;;13.05;1.75;;;20.30;99.90;;;;;;5079038;28;20401;-77
2022/10/13 08:30:03;;;;;;;17.50;2.40;;;20.30;99.90;;;;;;5073255;28;20210;-77
2022/10/13 08:32:34;;;;;;;8.73;2.25;;;20.20;99.90;;;;;;5072455;28;20282;-78
2022/10/13 08:35:05;;;;;;;12.75;2.60;;;20.30;99.90;;;;;;5071372;28;20574;-78
2022/10/13 08:37:37;;;;;;;10.98;2.10;;;20.30;99.90;;;;;;5089853;28;20205;-78
2022/10/13 08:40:09;;;;;;;12.63;2.40;;;20.30;99.90;;;;;;5091594;28;20550;-78
2022/10/13 08:42:44;;;;;;;10.73;1.80;;;20.30;99.90;;;;;;5090370;28;20198;-78
2022/10/13 08:45:21;;;;;;;11.35;1.90;;;20.30;99.90;;;;;;5080208;28;20197;-79
2022/10/13 08:47:54;;;;;;;12.25;2.45;;;20.20;99.90;;;;;;5071036;28;20234;-79
2022/10/13 08:50:27;;;;;;;9.63;1.83;;;20.30;99.90;;;;;;5071603;28;20206;-80
2022/10/13 08:53:03;;;;;;;14.38;2.35;;;20.20;99.90;;;;;;5076960;28;20207;-80
2022/10/13 08:55:37;;;;;;;11.38;2.42;;;20.20;99.90;;;;;;5090387;28;20191;-79
2022/10/13 08:58:16;;;;;;;12.65;2.35;;;20.20;99.90;;;;;;5090008;28;20219;-81
2022/10/13 09:00:47;;;;;;;10.02;2.20;;;20.20;99.90;;;;;;5087911;28;20206;-80
2022/10/13 09:03:26;;;;;;;11.43;2.13;;;20.20;99.90;;;;;;5071336;28;20765;-80
2022/10/13 09:06:12;;;;;;;14.07;2.38;;;20.20;99.90;;;;;;5071869;28;20188;-79
2022/10/13 09:08:49;;;;;;;9.48;1.75;;;20.20;99.90;;;;;;5072100;28;20310;-81
2022/10/13 09:11:20;;;;;;;10.40;2.40;;;20.20;99.90;;;;;;5084499;28;20282;-80
2022/10/13 09:13:55;;;;;;;12.25;2.15;;;20.20;99.90;;;;;;5094375;28;20203;-80
2022/10/13 09:16:37;;;;;;;14.18;2.30;;;20.20;99.90;;;;;;5096011;28;20261;-80
2022/10/13 09:19:26;;;;;;;10.45;1.98;;;20.20;99.90;;;;;;5077140;28;20289;-84
2022/10/13 09:21:58;;;;;;;9.02;2.17;;;20.20;99.90;;;;;;5072860;28;20220;-80
2022/10/13 09:24:41;;;;;;;13.40;2.60;;;20.20;99.90;;;;;;5071869;28;20704;-79
2022/10/13 09:27:27;;;;;;;16.95;2.45;;;20.10;99.90;;;;;;5075068;28;20647;-78
2022/10/13 09:30:02;;;;;;;12.88;2.40;;;20.10;99.90;;;;;;5071704;28;20204;-79
2022/10/13 09:32:43;;;;;;;13.18;2.22;;;20.10;99.90;;;;;;5071153;28;20654;-78
2022/10/13 09:35:24;;;;;;;12.77;2.40;;;20.00;99.90;;;;;;5072465;28;20609;-79
2022/10/13 09:38:12;;;;;;;14.48;2.25;;;20.00;99.90;;;;;;5104369;28;20216;-82
2022/10/13 09:41:13;;;;;;;11.38;2.15;;;20.00;99.90;;;;;;5101012;28;20203;-78
2022/10/13 09:44:17;;;;;;;;;;;;;;;;;;;;;
2022/10/13 09:46:55;;;;;;;12.25;2.60;;;20.00;99.90;;;;;;5086286;28;20633;-77
2022/10/13 09:50:13;;;;;;;12.45;2.63;;;19.90;99.90;;;;;;5089183;28;20207;-79
2022/10/13 09:52:46;;;;;;;10.93;1.92;;;19.80;99.90;;;;;;5091497;28;20211;-79
2022/10/13 09:56:10;;;;;;;11.55;2.08;;;19.80;99.90;;;;;;5102714;28;20271;-80
2022/10/13 09:59:08;;;;;;;10.68;2.17;;;19.80;99.90;;;;;;5091176;28;20211;-79
2022/10/13 10:01:59;;;;;;;14.80;2.83;;;19.80;99.90;;;;;;5089457;28;20211;-78
2022/10/13 10:04:46;;;;;;;14.85;2.47;;;19.80;99.90;;;;;;5085382;28;20196;-79
2022/10/13 10:10:41;;;;;;;12.95;2.35;;;19.90;99.90;;;;;;5098267;28;20299;-80
2022/10/13 10:13:30;;;;;;;10.43;2.05;;;19.90;99.90;;;;;;5090949;28;20200;-77
2022/10/13 10:16:47;;;;;;;11.55;2.20;;;19.90;99.90;;;;;;5078871;28;20228;-79
2022/10/13 10:19:31;;;;;;;12.85;2.28;;;19.90;99.90;;;;;;5097214;28;20223;-79
2022/10/13 10:22:26;;;;;;;9.95;1.80;;;19.90;99.90;;;;;;5111263;28;20198;-79
2022/10/13 10:25:04;;;;;;;13.55;2.33;;;19.90;99.90;;;;;;5101650;28;20294;-79
2022/10/13 10:27:52;;;;;;;11.07;2.40;;;19.90;99.90;;;;;;5105995;28;20187;-78
2022/10/13 10:30:40;;;;;;;15.65;2.13;;;19.90;99.90;;;;;;5097610;28;20526;-79
2022/10/13 10:33:52;;;;;;;9.70;1.90;;;19.90;99.90;;;;;;5100945;28;20568;-79
2022/10/13 10:36:39;;;;;;;11.68;1.90;;;19.90;99.90;;;;;;5099389;28;20714;-80
2022/10/13 10:39:35;;;;;;;13.68;2.63;;;20.00;99.90;;;;;;5106332;28;20312;-79
2022/10/13 10:42:33;;;;;;;11.23;2.13;;;20.00;99.90;;;;;;5114594;28;20195;-80
2022/10/13 10:45:25;;;;;;;13.50;2.55;;;20.00;99.90;;;;;;5118048;28;20194;-81
2022/10/13 10:48:03;;;;;;;9.70;1.95;;;19.90;99.90;;;;;;5099317;28;20203;-79
2022/10/13 10:50:37;;;;;;;15.13;2.17;;;19.90;99.90;;;;;;5101804;28;20646;-79
2022/10/13 10:53:30;;;;;;;12.35;2.40;;;19.90;99.90;;;;;;5091088;28;20198;-79
2022/10/13 10:56:09;;;;;;;11.52;2.45;;;19.90;99.90;;;;;;5094019;28;20227;-79
2022/10/13 10:58:48;;;;;;;14.13;2.00;;;19.90;99.90;;;;;;5099460;28;20202;-77
2022/10/13 11:01:41;;;;;;;12.77;2.53;;;19.90;99.90;;;;;;5119364;28;20214;-78
2022/10/13 11:04:43;;;;;;;11.80;2.50;;;20.00;99.90;;;;;;5101993;28;20195;-79
2022/10/13 11:07:41;;;;;;;11.77;2.15;;;20.00;99.90;;;;;;5102861;28;20207;-78
2022/10/13 11:10:23;;;;;;;11.07;2.22;;;20.00;99.90;;;;;;5085673;28;20256;-78
2022/10/13 11:13:22;;;;;;;15.68;2.45;;;19.90;99.90;;;;;;5094856;28;20253;-77
2022/10/13 11:15:54;;;;;;;12.73;2.80;;;19.90;99.90;;;;;;5100004;28;20242;-76
2022/10/13 11:19:14;;;;;;;14.02;2.47;;;20.00;99.90;;;;;;5105563;28;20262;-77
2022/10/13 11:22:18;;;;;;;16.05;2.72;;;19.90;99.90;;;;;;5080546;28;20207;-77
2022/10/13 11:24:53;;;;;;;13.73;3.45;;;19.90;99.90;;;;;;5017727;28;20194;-77
2022/10/13 11:27:48;;;;;;;16.27;2.55;;;19.90;99.90;;;;;;5094276;28;20209;-78
2022/10/13 11:30:48;;;;;;;11.63;2.33;;;19.80;99.90;;;;;;5097843;28;20195;-76
2022/10/13 11:33:56;;;;;;;13.05;2.25;;;19.80;99.90;;;;;;5096972;28;20672;-77
2022/10/13 11:36:56;;;;;;;14.88;2.83;;;19.80;99.90;;;;;;5064764;28;20199;-78
2022/10/13 11:40:12;;;;;;;13.65;2.65;;;19.80;99.90;;;;;;5084878;28;20211;-77
2022/10/13 11:43:08;;;;;;;14.75;2.80;;;19.70;99.90;;;;;;5087397;28;20204;-78
2022/10/13 11:46:01;;;;;;;18.05;3.17;;;19.80;99.90;;;;;;5094289;28;20567;-78
2022/10/13 11:49:00;;;;;;;10.68;2.60;;;19.80;99.90;;;;;;5076175;28;20551;-80
2022/10/13 11:51:42;;;;;;;12.18;2.35;;;19.80;99.90;;;;;;5078161;28;20735;-80
2022/10/13 11:54:25;;;;;;;16.48;2.75;;;19.80;99.90;;;;;;5088439;28;20199;-79
2022/10/13 11:56:59;;;;;;;16.77;3.13;;;19.80;99.90;;;;;;5072581;28;20196;-78
2022/10/13 11:59:32;;;;;;;13.98;3.15;;;19.80;99.90;;;;;;5088183;28;20223;-77
2022/10/13 12:02:12;;;;;;;14.07;2.50;;;19.80;99.90;;;;;;5090808;28;20210;-78
2022/10/13 12:04:44;;;;;;;13.90;3.10;;;19.80;99.90;;;;;;5085091;28;20667;-78
2022/10/13 12:07:17;;;;;;;12.63;2.50;;;19.80;99.90;;;;;;5088097;28;20207;-78
2022/10/13 12:09:53;;;;;;;13.90;2.83;;;19.80;99.90;;;;;;5092676;28;20225;-78
2022/10/13 12:12:29;;;;;;;14.63;3.10;;;19.80;99.90;;;;;;5087484;28;20263;-79
2022/10/13 12:15:01;;;;;;;11.15;2.50;;;19.70;99.90;;;;;;5082066;28;20706;-78
2022/10/13 12:17:34;;;;;;;10.45;2.50;;;19.70;99.90;;;;;;5073752;28;20290;-77
2022/10/13 12:20:20;;;;;;;12.82;2.33;;;19.70;99.90;;;;;;5072779;28;20227;-78
2022/10/13 12:22:52;;;;;;;15.25;2.70;;;19.70;99.90;;;;;;5084367;28;20650;-78
2022/10/13 12:25:25;;;;;;;14.02;2.67;;;19.70;99.90;;;;;;5092850;28;20614;-78
2022/10/13 12:28:00;;;;;;;14.48;2.42;;;19.60;99.90;;;;;;5084441;28;20567;-78
2022/10/13 12:30:35;;;;;;;12.23;2.35;;;19.60;99.90;;;;;;5077303;28;20286;-76
2022/10/13 12:33:25;;;;;;;9.63;2.38;;;19.60;99.90;;;;;;5095045;28;20252;-77
2022/10/13 12:35:56;;;;;;;12.18;2.03;;;19.60;99.90;;;;;;5087325;28;20610;-78
2022/10/13 12:38:27;;;;;;;15.90;2.63;;;19.60;99.90;;;;;;5095091;28;20201;-77
2022/10/13 12:40:58;;;;;;;11.55;2.80;;;19.50;99.90;;;;;;5095734;28;20222;-77
2022/10/13 12:43:30;;;;;;;9.00;1.80;;;19.60;99.90;;;;;;5088923;28;20286;-78
2022/10/13 12:46:01;;;;;;;9.35;2.47;;;19.60;99.90;;;;;;5088644;28;20244;-78
2022/10/13 12:48:34;;;;;;;18.90;2.40;;;19.60;99.90;;;;;;5097635;28;20188;-79
2022/10/13 12:51:19;;;;;;;14.18;2.33;;;19.60;99.90;;;;;;5082898;28;20673;-78
2022/10/13 12:53:51;;;;;;;9.43;1.90;;;19.60;99.90;;;;;;5095323;28;20218;-79
2022/10/13 12:56:28;;;;;;;10.65;1.90;;;19.60;99.90;;;;;;5095594;28;20183;-78
2022/10/13 12:59:02;;;;;;;9.93;2.53;;;19.60;99.90;;;;;;5098952;28;20214;-79
2022/10/13 13:01:36;;;;;;;10.50;2.28;;;19.60;99.90;;;;;;5094194;28;20272;-79
2022/10/13 13:04:20;;;;;;;9.52;1.85;;;19.60;99.90;;;;;;5100000;28;20282;-78
2022/10/13 13:06:58;;;;;;;10.65;1.80;;;19.60;99.90;;;;;;5084674;28;20202;-79
2022/10/13 13:09:40;;;;;;;11.20;2.13;;;19.60;99.90;;;;;;5094537;28;20715;-78
2022/10/13 13:12:33;;;;;;;9.48;1.70;;;19.60;99.90;;;;;;5077685;28;20217;-77
2022/10/13 13:15:32;;;;;;;9.32;1.83;;;19.60;99.90;;;;;;5089455;28;20314;-78
2022/10/13 13:18:35;;;;;;;11.02;1.90;;;19.60;99.90;;;;;;5090254;28;20263;-77
2022/10/13 13:21:08;;;;;;;6.22;1.70;;;19.50;99.90;;;;;;5099665;28;20222;-77
2022/10/13 13:23:39;;;;;;;8.38;2.15;;;19.50;99.90;;;;;;5081000;28;20227;-78
2022/10/13 13:26:14;;;;;;;7.30;1.63;;;19.50;99.90;;;;;;5091590;28;20187;-79
2022/10/13 13:28:48;;;;;;;7.60;1.70;;;19.50;99.90;;;;;;5088839;28;20565;-78
2022/10/13 13:31:24;;;;;;;12.30;2.33;;;19.50;99.90;;;;;;5097345;28;20277;-80
2022/10/13 13:33:54;;;;;;;10.80;1.40;;;19.50;99.90;;;;;;5089831;28;20234;-77
2022/10/13 13:36:27;;;;;;;10.50;1.67;;;19.40;99.90;;;;;;5096465;28;20298;-79